createdAt,value
2023-06-28T00:01:12.449Z,2.88
2023-06-28T00:04:14.803Z,2.90
2023-06-28T00:07:16.976Z,2.70
2023-06-28T00:10:20.242Z,3.00
2023-06-28T00:13:22.417Z,3.50
2023-06-28T00:16:24.544Z,3.30
2023-06-28T00:19:29.523Z,3.20
2023-06-28T00:22:31.681Z,3.13
2023-06-28T00:25:36.086Z,3.35
2023-06-28T00:28:37.791Z,3.00
2023-06-28T00:31:40.911Z,3.03
2023-06-28T00:34:43.031Z,3.08
2023-06-28T00:37:45.671Z,2.97
2023-06-28T00:40:52.151Z,2.60
2023-06-28T00:43:59.531Z,2.80
2023-06-28T00:47:11.231Z,3.25
2023-06-28T00:50:15.356Z,3.00
2023-06-28T00:53:20.921Z,3.00
2023-06-28T00:56:23.264Z,3.25
2023-06-28T00:59:25.565Z,3.22
2023-06-28T01:02:33.125Z,3.80
2023-06-28T01:05:36.044Z,3.45
2023-06-28T01:08:40.337Z,3.90
2023-06-28T01:11:43.098Z,3.83
2023-06-28T01:14:49.006Z,3.67
2023-06-28T01:17:52.207Z,4.10
2023-06-28T01:20:58.312Z,3.70
2023-06-28T01:24:03.512Z,3.90
2023-06-28T01:27:08.219Z,3.90
2023-06-28T01:30:12.298Z,3.90
2023-06-28T01:33:14.903Z,4.13
2023-06-28T01:36:17.099Z,4.20
2023-06-28T01:39:20.398Z,4.30
2023-06-28T01:42:22.680Z,3.90
2023-06-28T01:45:25.575Z,3.92
2023-06-28T01:48:29.118Z,4.10
2023-06-28T01:51:31.547Z,3.78
2023-06-28T01:54:36.865Z,4.47
2023-06-28T01:57:39.781Z,4.47
2023-06-28T02:00:42.320Z,4.30
2023-06-28T02:03:44.427Z,4.40
2023-06-28T02:06:46.972Z,4.55
2023-06-28T02:09:49.059Z,4.37
2023-06-28T02:12:55.035Z,4.10
2023-06-28T02:15:56.647Z,4.50
2023-06-28T02:19:03.626Z,4.47
2023-06-28T02:22:05.925Z,4.18
2023-06-28T02:25:09.403Z,4.37
2023-06-28T02:28:12.948Z,4.32
2023-06-28T02:31:15.104Z,4.30
2023-06-28T02:34:16.852Z,4.60
2023-06-28T02:37:19.682Z,4.78
2023-06-28T02:40:22.019Z,4.67
2023-06-28T02:43:23.605Z,5.00
2023-06-28T02:46:25.906Z,4.72
2023-06-28T02:49:29.468Z,4.85
2023-06-28T02:52:31.576Z,4.95
2023-06-28T02:55:37.460Z,5.23
2023-06-28T02:58:44.823Z,5.07
2023-06-28T03:01:47.295Z,5.13
2023-06-28T03:04:53.826Z,4.70
2023-06-28T03:08:00.320Z,5.30
2023-06-28T03:11:02.429Z,5.13
2023-06-28T03:14:04.845Z,5.10
2023-06-28T03:17:08.849Z,5.30
2023-06-28T03:20:13.562Z,5.20
2023-06-28T03:23:16.437Z,5.15
2023-06-28T03:26:18.268Z,5.33
2023-06-28T03:29:20.751Z,5.63
2023-06-28T03:32:22.448Z,5.60
2023-06-28T03:35:24.611Z,5.50
2023-06-28T03:38:26.859Z,5.60
2023-06-28T03:41:29.392Z,5.43
2023-06-28T03:44:31.572Z,5.68
2023-06-28T03:47:33.972Z,5.80
2023-06-28T03:50:36.352Z,5.47
2023-06-28T03:53:38.831Z,5.50
2023-06-28T03:56:40.629Z,5.20
2023-06-28T03:59:44.160Z,5.72
2023-06-28T04:02:46.110Z,5.55
2023-06-28T04:05:49.228Z,5.70
2023-06-28T04:08:53.733Z,5.47
2023-06-28T04:11:55.487Z,5.60
2023-06-28T04:15:00.936Z,5.25
2023-06-28T04:18:05.936Z,5.18
2023-06-28T04:21:09.098Z,5.22
2023-06-28T04:24:13.857Z,4.80
2023-06-28T04:27:16.237Z,5.28
2023-06-28T04:30:22.480Z,5.22
2023-06-28T04:33:26.010Z,5.10
2023-06-28T04:36:29.253Z,5.22
2023-06-28T04:39:33.630Z,4.70
2023-06-28T04:42:38.375Z,4.90
2023-06-28T04:45:53.967Z,5.20
2023-06-28T04:49:00.777Z,4.93
2023-06-28T04:52:02.697Z,4.88
2023-06-28T04:55:04.803Z,4.87
2023-06-28T04:58:10.062Z,5.35
2023-06-28T05:01:14.400Z,5.30
2023-06-28T05:04:18.420Z,5.18
2023-06-28T05:07:22.828Z,5.10
2023-06-28T05:10:28.074Z,5.10
2023-06-28T05:13:31.379Z,5.07
2023-06-28T05:16:34.709Z,5.40
2023-06-28T05:19:37.421Z,5.00
2023-06-28T05:22:43.984Z,5.07
2023-06-28T05:25:48.186Z,5.18
2023-06-28T05:29:00.244Z,5.15
2023-06-28T05:32:05.047Z,5.00
2023-06-28T05:35:11.425Z,5.18
2023-06-28T05:38:13.190Z,5.23
2023-06-28T05:41:17.494Z,5.10
2023-06-28T05:44:22.405Z,5.35
2023-06-28T05:47:24.618Z,5.55
2023-06-28T05:50:28.189Z,5.50
2023-06-28T05:53:30.677Z,5.50
2023-06-28T05:56:33.569Z,5.45
2023-06-28T05:59:36.689Z,5.20
2023-06-28T06:02:38.858Z,4.88
2023-06-28T06:05:42.336Z,5.13
2023-06-28T06:08:44.509Z,4.97
2023-06-28T06:11:49.238Z,5.13
2023-06-28T06:14:51.818Z,5.00
2023-06-28T06:17:54.481Z,4.82
2023-06-28T06:20:56.467Z,4.70
2023-06-28T06:24:01.800Z,4.80
2023-06-28T06:27:05.019Z,4.97
2023-06-28T06:30:07.374Z,4.93
2023-06-28T06:33:09.567Z,4.55
2023-06-28T06:36:11.408Z,4.73
2023-06-28T06:39:13.527Z,4.60
2023-06-28T06:42:17.525Z,4.70
2023-06-28T06:45:20.879Z,4.65
2023-06-28T06:48:23.061Z,5.07
2023-06-28T06:51:25.162Z,5.10
2023-06-28T06:54:30.877Z,4.55
2023-06-28T06:57:32.965Z,4.63
2023-06-28T07:00:35.472Z,4.70
2023-06-28T07:03:37.091Z,4.85
2023-06-28T07:06:38.880Z,4.97
2023-06-28T07:09:40.601Z,4.88
2023-06-28T07:12:43.121Z,4.45
2023-06-28T07:15:45.445Z,4.90
2023-06-28T07:18:47.809Z,4.80
2023-06-28T07:21:51.167Z,4.70
2023-06-28T07:24:54.173Z,5.03
2023-06-28T07:27:57.566Z,4.78
2023-06-28T07:31:06.044Z,4.72
2023-06-28T07:34:10.073Z,5.00
2023-06-28T07:37:12.047Z,4.50
2023-06-28T07:40:17.492Z,4.50
2023-06-28T07:43:20.548Z,4.30
2023-06-28T07:46:22.777Z,5.00
2023-06-28T07:49:24.526Z,4.50
2023-06-28T07:52:26.606Z,4.43
2023-06-28T07:55:33.102Z,4.40
2023-06-28T07:58:38.334Z,4.38
2023-06-28T08:01:40.743Z,4.80
2023-06-28T08:04:43.352Z,4.30
2023-06-28T08:07:46.760Z,4.80
2023-06-28T08:10:48.473Z,4.30
2023-06-28T08:13:53.376Z,4.85
2023-06-28T08:16:55.889Z,4.57
2023-06-28T08:20:01.322Z,4.00
2023-06-28T08:23:04.896Z,4.05
2023-06-28T08:26:08.095Z,4.07
2023-06-28T08:29:11.730Z,4.32
2023-06-28T08:32:16.549Z,4.35
2023-06-28T08:35:18.863Z,4.30
2023-06-28T08:38:21.167Z,4.05
2023-06-28T08:41:23.356Z,4.38
2023-06-28T08:44:27.560Z,4.30
2023-06-28T08:47:33.660Z,4.10
2023-06-28T08:50:36.179Z,4.30
2023-06-28T08:53:38.995Z,3.90
2023-06-28T08:56:48.726Z,3.85
2023-06-28T08:59:58.187Z,4.05
2023-06-28T09:03:04.951Z,3.70
2023-06-28T09:06:09.575Z,3.57
2023-06-28T09:09:22.056Z,3.65
2023-06-28T09:12:24.177Z,3.80
2023-06-28T09:15:25.803Z,3.70
2023-06-28T09:18:30.255Z,4.10
2023-06-28T09:21:35.457Z,3.93
2023-06-28T09:24:40.078Z,3.60
2023-06-28T09:27:45.070Z,3.58
2023-06-28T09:31:08.503Z,3.38
2023-06-28T09:34:10.239Z,3.33
2023-06-28T09:37:11.882Z,3.60
2023-06-28T09:40:17.686Z,3.17
2023-06-28T09:43:22.180Z,3.55
2023-06-28T09:46:34.556Z,3.30
2023-06-28T09:49:38.697Z,3.13
2023-06-28T09:52:45.079Z,3.13
2023-06-28T09:55:50.979Z,3.47
2023-06-28T09:58:57.651Z,3.10
2023-06-28T10:02:03.806Z,3.13
2023-06-28T10:05:07.727Z,3.17
2023-06-28T10:08:12.241Z,3.93
2023-06-28T10:11:19.056Z,3.80
2023-06-28T10:14:25.018Z,3.65
2023-06-28T10:17:32.764Z,3.65
2023-06-28T10:20:38.854Z,4.10
2023-06-28T10:23:42.333Z,3.57
2023-06-28T10:26:45.235Z,3.65
2023-06-28T10:29:50.676Z,3.70
2023-06-28T10:32:54.113Z,4.25
2023-06-28T10:35:59.602Z,3.60
2023-06-28T10:39:01.347Z,3.67
2023-06-28T10:42:03.684Z,3.10
2023-06-28T10:45:06.612Z,3.40
2023-06-28T10:48:09.112Z,2.65
2023-06-28T10:51:15.250Z,2.85
2023-06-28T10:54:20.695Z,3.53
2023-06-28T10:57:36.718Z,3.20
2023-06-28T11:00:40.716Z,3.50
2023-06-28T11:03:42.840Z,3.20
2023-06-28T11:06:46.701Z,3.40
2023-06-28T11:10:18.393Z,3.53
2023-06-28T11:13:43.816Z,3.30
2023-06-28T11:16:49.340Z,3.42
2023-06-28T11:19:51.803Z,3.08
2023-06-28T11:22:54.816Z,3.20
2023-06-28T11:26:03.798Z,3.40
2023-06-28T11:29:20.272Z,3.20
2023-06-28T11:32:33.646Z,3.08
2023-06-28T11:35:37.114Z,2.63
2023-06-28T11:38:40.574Z,3.03
2023-06-28T11:41:44.586Z,3.40
2023-06-28T11:44:54.766Z,3.40
2023-06-28T11:47:57.126Z,3.00
2023-06-28T11:51:03.657Z,3.40
2023-06-28T11:54:07.732Z,3.00
2023-06-28T11:57:11.278Z,2.70
2023-06-28T12:00:15.024Z,3.00
2023-06-28T12:03:19.562Z,3.00
2023-06-28T12:06:21.840Z,2.65
2023-06-28T12:09:28.530Z,2.78
2023-06-28T12:12:37.141Z,3.03
2023-06-28T12:15:39.416Z,2.90
2023-06-28T12:19:00.024Z,2.50
2023-06-28T12:22:09.334Z,2.40
2023-06-28T12:25:12.519Z,3.13
2023-06-28T12:28:15.566Z,2.80
2023-06-28T12:31:17.896Z,2.87
2023-06-28T12:34:27.560Z,2.95
2023-06-28T12:37:44.474Z,2.70
2023-06-28T12:40:46.439Z,2.72
2023-06-28T12:43:57.411Z,2.90
2023-06-28T12:46:59.777Z,2.80
2023-06-28T12:50:04.957Z,2.88
2023-06-28T12:53:07.116Z,2.78
2023-06-28T12:56:09.397Z,2.50
2023-06-28T12:59:11.032Z,2.67
2023-06-28T13:02:15.605Z,2.53
2023-06-28T13:05:17.956Z,2.40
2023-06-28T13:08:20.980Z,2.70
2023-06-28T13:11:23.188Z,4.40
2023-06-28T13:14:25.524Z,2.50
2023-06-28T13:17:27.467Z,2.30
2023-06-28T13:20:29.625Z,2.50
2023-06-28T13:23:31.272Z,2.47
2023-06-28T13:26:34.462Z,2.40
2023-06-28T13:29:36.644Z,2.43
2023-06-28T13:32:38.827Z,2.60
2023-06-28T13:35:40.576Z,2.58
2023-06-28T13:38:42.342Z,2.60
2023-06-28T13:41:44.655Z,3.00
2023-06-28T13:44:46.437Z,2.37
2023-06-28T13:47:48.761Z,2.40
2023-06-28T13:50:54.339Z,2.40
2023-06-28T13:53:56.593Z,2.50
2023-06-28T13:56:58.752Z,2.40
2023-06-28T14:00:00.465Z,2.60
2023-06-28T14:03:06.037Z,2.20
2023-06-28T14:06:07.845Z,2.58
2023-06-28T14:09:09.488Z,2.03
2023-06-28T14:12:13.628Z,2.47
2023-06-28T14:15:17.063Z,2.83
2023-06-28T14:18:19.278Z,1.97
2023-06-28T14:21:20.918Z,2.22
2023-06-28T14:24:23.150Z,2.33
2023-06-28T14:27:27.494Z,2.22
2023-06-28T14:30:29.774Z,2.10
2023-06-28T14:33:31.545Z,2.30
2023-06-28T14:36:33.444Z,2.30
2023-06-28T14:39:35.790Z,2.33
2023-06-28T14:42:37.439Z,2.38
2023-06-28T14:45:41.640Z,2.40
2023-06-28T14:48:43.652Z,2.30
2023-06-28T14:51:47.355Z,2.40
2023-06-28T14:54:51.117Z,2.20
2023-06-28T14:57:53.634Z,2.20
2023-06-28T15:00:55.243Z,2.43
2023-06-28T15:03:58.375Z,2.30
2023-06-28T15:07:01.764Z,2.30
2023-06-28T15:10:05.638Z,2.40
2023-06-28T15:13:07.567Z,2.20
2023-06-28T15:16:09.473Z,2.13
2023-06-28T15:19:11.751Z,4.20
2023-06-28T15:22:14.559Z,2.53
2023-06-28T15:25:17.018Z,2.60
2023-06-28T15:28:21.060Z,2.58
2023-06-28T15:31:22.824Z,2.53
2023-06-28T15:34:24.955Z,2.40
2023-06-28T15:37:26.516Z,2.40
2023-06-28T15:40:28.138Z,2.22
2023-06-28T15:43:29.885Z,2.20
2023-06-28T15:46:33.302Z,2.50
2023-06-28T15:49:36.226Z,2.30
2023-06-28T15:52:38.460Z,2.38
2023-06-28T15:55:41.924Z,2.15
2023-06-28T15:58:44.845Z,2.50
2023-06-28T16:01:47.167Z,2.30
2023-06-28T16:04:49.397Z,2.40
2023-06-28T16:07:55.725Z,2.10
2023-06-28T16:10:59.706Z,2.30
2023-06-28T16:14:03.326Z,2.40
2023-06-28T16:17:06.973Z,2.30
2023-06-28T16:20:13.407Z,2.20
2023-06-28T16:23:15.807Z,2.20
2023-06-28T16:26:17.929Z,2.35
2023-06-28T16:29:20.119Z,2.38
2023-06-28T16:32:22.033Z,2.10
2023-06-28T16:35:24.026Z,2.37
2023-06-28T16:38:27.294Z,2.30
2023-06-28T16:41:29.476Z,2.40
2023-06-28T16:44:31.439Z,2.20
2023-06-28T16:47:34.293Z,2.50
2023-06-28T16:50:36.622Z,2.40
2023-06-28T16:53:38.788Z,2.13
2023-06-28T16:56:40.607Z,2.45
2023-06-28T16:59:42.785Z,2.40
2023-06-28T17:02:47.886Z,2.33
2023-06-28T17:05:51.161Z,3.33
2023-06-28T17:08:52.809Z,2.38
2023-06-28T17:11:55.296Z,2.40
2023-06-28T17:15:00.888Z,2.28
2023-06-28T17:18:02.902Z,2.40
2023-06-28T17:21:04.604Z,2.30
2023-06-28T17:24:07.778Z,2.55
2023-06-28T17:27:10.056Z,2.20
2023-06-28T17:30:12.390Z,2.40
2023-06-28T17:33:15.939Z,2.30
2023-06-28T17:36:17.854Z,2.30
2023-06-28T17:39:29.840Z,2.65
2023-06-28T17:42:32.801Z,2.42
2023-06-28T17:45:38.302Z,2.40
2023-06-28T17:48:41.136Z,2.33
2023-06-28T17:51:45.530Z,2.37
2023-06-28T17:54:48.118Z,2.40
2023-06-28T17:57:50.711Z,2.40
2023-06-28T18:00:52.472Z,2.30
2023-06-28T18:03:56.258Z,2.13
2023-06-28T18:06:58.399Z,2.30
2023-06-28T18:10:00.510Z,2.67
2023-06-28T18:13:02.701Z,2.20
2023-06-28T18:16:05.106Z,2.95
2023-06-28T18:19:10.031Z,2.30
2023-06-28T18:22:12.215Z,2.27
2023-06-28T18:25:14.764Z,2.20
2023-06-28T18:28:16.554Z,2.22
2023-06-28T18:31:18.566Z,2.40
2023-06-28T18:34:20.284Z,2.33
2023-06-28T18:37:22.510Z,2.60
2023-06-28T18:40:24.677Z,2.33
2023-06-28T18:43:26.362Z,2.58
2023-06-28T18:46:28.244Z,2.50
2023-06-28T18:49:32.072Z,2.43
2023-06-28T18:52:38.911Z,2.57
2023-06-28T18:55:40.556Z,2.70
2023-06-28T18:58:42.173Z,2.50
2023-06-28T19:01:43.913Z,2.30
2023-06-28T19:04:48.954Z,2.47
2023-06-28T19:07:51.496Z,2.50
2023-06-28T19:10:54.107Z,2.55
2023-06-28T19:13:55.857Z,2.50
2023-06-28T19:16:57.751Z,2.58
2023-06-28T19:20:00.688Z,3.00
2023-06-28T19:23:04.265Z,2.60
2023-06-28T19:26:06.279Z,2.70
2023-06-28T19:29:08.445Z,2.90
2023-06-28T19:32:10.657Z,2.65
2023-06-28T19:35:13.767Z,2.87
2023-06-28T19:38:21.599Z,2.90
2023-06-28T19:41:25.993Z,2.70
2023-06-28T19:44:28.916Z,2.97
2023-06-28T19:47:32.847Z,2.70
2023-06-28T19:50:35.841Z,3.30
2023-06-28T19:53:38.453Z,2.93
2023-06-28T19:56:40.157Z,3.50
2023-06-28T19:59:43.704Z,3.15
2023-06-28T20:02:45.492Z,2.97
2023-06-28T20:05:50.821Z,2.97
2023-06-28T20:08:56.426Z,3.07
2023-06-28T20:12:04.254Z,2.95
2023-06-28T20:15:09.036Z,3.17
2023-06-28T20:18:12.198Z,3.05
2023-06-28T20:21:15.773Z,2.87
2023-06-28T20:24:32.391Z,3.05
2023-06-28T20:27:38.924Z,3.00
2023-06-28T20:30:44.014Z,3.30
2023-06-28T20:33:47.305Z,3.10
2023-06-28T20:36:54.694Z,3.07
2023-06-28T20:39:56.987Z,3.20
2023-06-28T20:43:00.755Z,3.10
2023-06-28T20:46:04.497Z,3.40
2023-06-28T20:49:08.439Z,3.40
2023-06-28T20:52:12.859Z,3.67
2023-06-28T20:55:19.711Z,3.80
2023-06-28T20:58:22.309Z,3.50
2023-06-28T21:01:26.288Z,3.47
2023-06-28T21:04:29.306Z,3.60
2023-06-28T21:07:36.551Z,3.47
2023-06-28T21:10:42.838Z,3.50
2023-06-28T21:13:50.759Z,3.72
2023-06-28T21:16:52.478Z,3.83
2023-06-28T21:19:59.548Z,3.90
2023-06-28T21:23:04.991Z,3.70
2023-06-28T21:26:08.446Z,3.90
2023-06-28T21:29:10.995Z,4.03
2023-06-28T21:32:15.674Z,4.20
2023-06-28T21:35:22.121Z,4.00
2023-06-28T21:38:28.610Z,4.10
2023-06-28T21:41:32.736Z,3.65
2023-06-28T21:44:36.849Z,3.83
2023-06-28T21:47:41.793Z,3.80
2023-06-28T21:50:47.178Z,4.20
2023-06-28T21:53:51.012Z,3.90
2023-06-28T21:56:54.080Z,4.20
2023-06-28T22:00:02.877Z,4.20
2023-06-28T22:03:09.612Z,4.32
2023-06-28T22:06:13.024Z,4.65
2023-06-28T22:09:14.899Z,4.77
2023-06-28T22:12:18.964Z,4.50
2023-06-28T22:15:21.140Z,4.50
2023-06-28T22:18:26.415Z,4.20
2023-06-28T22:21:29.303Z,4.30
2023-06-28T22:24:35.363Z,4.43
2023-06-28T22:27:40.054Z,4.55
2023-06-28T22:30:48.896Z,4.10
2023-06-28T22:33:53.185Z,4.45
2023-06-28T22:36:55.640Z,4.90
2023-06-28T22:40:03.159Z,4.50
2023-06-28T22:43:20.412Z,4.57
2023-06-28T22:46:25.930Z,4.72
2023-06-28T22:49:33.200Z,4.68
2023-06-28T22:52:36.145Z,4.43
2023-06-28T22:55:40.117Z,4.57
2023-06-28T22:58:42.073Z,4.97
2023-06-28T23:01:47.204Z,5.25
2023-06-28T23:04:56.902Z,5.38
2023-06-28T23:07:59.949Z,5.25
2023-06-28T23:11:05.846Z,5.00
2023-06-28T23:14:12.603Z,4.95
2023-06-28T23:17:17.819Z,5.30
2023-06-28T23:20:27.689Z,5.57
2023-06-28T23:23:32.196Z,5.25
2023-06-28T23:26:35.815Z,5.20
2023-06-28T23:29:38.818Z,5.57
2023-06-28T23:32:41.539Z,5.20
2023-06-28T23:35:50.460Z,5.47
2023-06-28T23:38:57.308Z,5.00
2023-06-28T23:42:00.069Z,5.43
2023-06-28T23:45:03.934Z,5.50
2023-06-28T23:48:07.313Z,5.60
2023-06-28T23:51:10.227Z,5.45
2023-06-28T23:54:14.198Z,5.30
2023-06-28T23:57:17.865Z,5.40
